Time;durP1;ratioP1;P1;durP2;ratioP2;P2;SDS_P1;SDS_P2;PMS_P1;PMS_P2;Temp;Humidity;BMP_temperature;BMP_pressure;BME280_temperature;BME280_humidity;BME280_pressure;Samples;Min_cycle;Max_cycle;Signal;HPM_P1;HPM_P2
2021/03/05 00:00:58;;;;;;;7.97;3.80;;;2.00;99.90;;;;;;4972495;28;20233;-81
2021/03/05 00:03:25;;;;;;;5.18;2.70;;;2.00;99.90;;;;;;4982983;28;20219;-80
2021/03/05 00:05:52;;;;;;;7.47;2.60;;;2.00;99.90;;;;;;4976566;29;20199;-82
2021/03/05 00:08:19;;;;;;;8.95;3.78;;;2.00;99.90;;;;;;4970399;28;20250;-80
2021/03/05 00:10:46;;;;;;;8.15;3.95;;;1.90;99.90;;;;;;4975977;28;20318;-80
2021/03/05 00:13:14;;;;;;;8.18;3.75;;;1.90;99.90;;;;;;4967157;28;20236;-80
2021/03/05 00:15:44;;;;;;;12.20;5.05;;;1.80;99.90;;;;;;4968922;28;20218;-80
2021/03/05 00:18:10;;;;;;;3.67;2.42;;;1.80;99.90;;;;;;4967128;28;20218;-80
2021/03/05 00:20:40;;;;;;;6.88;2.08;;;1.80;99.90;;;;;;4967950;28;20210;-81
2021/03/05 00:23:06;;;;;;;6.30;2.55;;;1.80;99.90;;;;;;4967675;28;20566;-80
2021/03/05 00:25:33;;;;;;;7.10;2.33;;;1.80;99.90;;;;;;4969039;28;20214;-80
2021/03/05 00:28:00;;;;;;;6.22;2.92;;;1.80;99.90;;;;;;4970844;28;20283;-81
2021/03/05 00:30:28;;;;;;;7.38;2.03;;;1.70;99.90;;;;;;4964102;28;20222;-80
2021/03/05 00:32:55;;;;;;;5.85;2.97;;;1.70;99.90;;;;;;4972426;28;20231;-79
2021/03/05 00:35:21;;;;;;;4.80;1.67;;;1.70;99.90;;;;;;4969227;28;20214;-81
2021/03/05 00:37:48;;;;;;;2.80;2.05;;;1.70;99.90;;;;;;4962213;28;20242;-82
2021/03/05 00:40:17;;;;;;;3.65;1.90;;;1.60;99.90;;;;;;4966355;29;20243;-81
2021/03/05 00:42:45;;;;;;;7.05;2.20;;;1.60;99.90;;;;;;4963313;28;20235;-79
2021/03/05 00:45:13;;;;;;;5.07;1.45;;;1.60;99.90;;;;;;4974491;28;20225;-81
2021/03/05 00:47:41;;;;;;;7.53;2.13;;;1.70;99.90;;;;;;4971494;28;20207;-79
2021/03/05 00:50:09;;;;;;;11.40;2.05;;;1.60;99.90;;;;;;4970950;29;20245;-79
2021/03/05 00:52:36;;;;;;;4.60;2.00;;;1.60;99.90;;;;;;4972958;28;20208;-80
2021/03/05 00:55:03;;;;;;;3.10;2.10;;;1.50;99.90;;;;;;4967764;28;20556;-81
2021/03/05 00:57:30;;;;;;;2.00;1.50;;;1.50;99.90;;;;;;4964909;28;20237;-80
2021/03/05 00:59:56;;;;;;;2.60;1.60;;;1.60;99.90;;;;;;4971445;29;20223;-82
2021/03/05 01:02:23;;;;;;;4.82;1.92;;;1.50;99.90;;;;;;4969966;28;20380;-81
2021/03/05 01:04:51;;;;;;;7.70;2.05;;;1.50;99.90;;;;;;4968803;28;20226;-81
2021/03/05 01:07:17;;;;;;;3.10;1.73;;;1.50;99.90;;;;;;4966955;28;20195;-81
2021/03/05 01:09:44;;;;;;;3.95;1.70;;;1.50;99.90;;;;;;4965380;28;20207;-81
2021/03/05 01:12:11;;;;;;;8.27;2.67;;;1.50;99.90;;;;;;4965562;28;20210;-79
2021/03/05 01:14:38;;;;;;;3.70;2.17;;;1.40;99.90;;;;;;4966052;28;20215;-79
2021/03/05 01:17:05;;;;;;;6.30;2.13;;;1.40;99.90;;;;;;4965417;28;20262;-81
2021/03/05 01:19:31;;;;;;;4.68;1.80;;;1.40;99.90;;;;;;4965656;28;20214;-80
2021/03/05 01:21:59;;;;;;;4.95;1.95;;;1.40;99.90;;;;;;4965167;28;20225;-78
2021/03/05 01:24:25;;;;;;;3.17;1.30;;;1.40;99.90;;;;;;4966248;28;20251;-81
2021/03/05 01:26:52;;;;;;;2.75;1.70;;;1.30;99.90;;;;;;4967211;28;20663;-81
2021/03/05 01:29:19;;;;;;;4.18;1.50;;;1.30;99.90;;;;;;4965154;28;20207;-80
2021/03/05 01:31:45;;;;;;;5.32;2.05;;;1.30;99.90;;;;;;4963947;29;20207;-81
2021/03/05 01:34:12;;;;;;;6.43;2.08;;;1.30;99.90;;;;;;4965028;28;20247;-81
2021/03/05 01:36:39;;;;;;;10.48;2.05;;;1.30;99.90;;;;;;4965775;28;20203;-81
2021/03/05 01:39:07;;;;;;;4.78;1.50;;;1.30;99.90;;;;;;4964839;28;20280;-81
2021/03/05 01:41:34;;;;;;;4.88;1.52;;;1.30;99.90;;;;;;4966079;28;20656;-81
2021/03/05 01:44:01;;;;;;;3.63;1.70;;;1.30;99.90;;;;;;4965394;28;20230;-81
2021/03/05 01:46:29;;;;;;;2.10;1.42;;;1.20;99.90;;;;;;4968579;28;20238;-81
2021/03/05 01:48:56;;;;;;;8.80;1.80;;;1.20;99.90;;;;;;4965483;28;20213;-81
2021/03/05 01:51:27;;;;;;;3.35;1.98;;;1.20;99.90;;;;;;4963839;28;20207;-82
2021/03/05 01:53:53;;;;;;;2.38;1.20;;;1.20;99.90;;;;;;4965984;28;20234;-82
2021/03/05 01:56:37;;;;;;;4.65;2.28;;;1.30;99.90;;;;;;4968800;28;20217;-82
2021/03/05 01:59:05;;;;;;;2.45;1.60;;;1.30;99.90;;;;;;4964259;28;20191;-81
2021/03/05 02:01:33;;;;;;;7.60;2.30;;;1.20;99.90;;;;;;4966182;28;20205;-81
2021/03/05 02:04:01;;;;;;;2.78;1.75;;;1.20;99.90;;;;;;4962962;28;20237;-82
2021/03/05 02:06:29;;;;;;;6.97;1.80;;;1.20;99.90;;;;;;4958330;28;20211;-80
2021/03/05 02:08:56;;;;;;;5.35;1.88;;;1.20;99.90;;;;;;4964112;28;20211;-81
2021/03/05 02:11:24;;;;;;;5.90;2.13;;;1.20;99.90;;;;;;4962581;28;20214;-80
2021/03/05 02:13:54;;;;;;;6.03;2.15;;;1.20;99.90;;;;;;4965732;28;20223;-80
2021/03/05 02:16:36;;;;;;;3.63;1.50;;;1.20;99.90;;;;;;4965401;28;20582;-82
2021/03/05 02:19:16;;;;;;;3.60;2.25;;;1.20;99.90;;;;;;4965840;29;20198;-83
2021/03/05 02:22:11;;;;;;;3.00;1.60;;;1.20;99.90;;;;;;4966018;28;20205;-82
2021/03/05 18:39:19;;;;;;;9.82;3.88;;;5.00;95.30;;;;;;4989519;28;20245;-82
2021/03/05 18:41:48;;;;;;;12.45;5.75;;;5.00;95.70;;;;;;5008829;28;20209;-83
2021/03/05 18:50:52;;;;;;;14.43;4.53;;;4.90;96.50;;;;;;4947357;28;20588;-84
2021/03/05 18:53:19;;;;;;;7.55;3.63;;;4.80;96.70;;;;;;4976958;28;20206;-81
2021/03/05 18:55:47;;;;;;;22.15;8.48;;;4.80;96.90;;;;;;4985925;28;20318;-83
2021/03/05 18:58:14;;;;;;;8.80;4.05;;;4.80;97.10;;;;;;4976140;28;20221;-83
2021/03/05 19:00:40;;;;;;;7.65;4.03;;;4.70;97.20;;;;;;4986023;28;20208;-83
2021/03/05 19:03:08;;;;;;;8.23;3.78;;;4.70;97.50;;;;;;4986166;28;20265;-80
2021/03/05 19:05:41;;;;;;;7.43;4.80;;;4.70;97.80;;;;;;4996892;28;20215;-81
2021/03/05 19:08:19;;;;;;;9.25;4.60;;;4.60;97.90;;;;;;4985693;28;20182;-81
2021/03/05 19:10:47;;;;;;;12.32;4.35;;;4.60;98.20;;;;;;4980015;28;20289;-86
2021/03/05 19:13:14;;;;;;;13.20;4.35;;;4.60;98.50;;;;;;4972923;28;20206;-84
2021/03/05 19:15:41;;;;;;;10.48;3.55;;;4.60;98.50;;;;;;4970843;28;20592;-83
2021/03/05 19:18:08;;;;;;;11.88;5.07;;;4.60;98.70;;;;;;4968901;28;20218;-81
2021/03/05 19:20:35;;;;;;;11.55;5.35;;;4.60;98.70;;;;;;4985268;28;20238;-85
2021/03/05 19:23:02;;;;;;;7.50;4.70;;;4.60;98.90;;;;;;4986951;28;20246;-85
2021/03/05 19:25:29;;;;;;;11.77;5.63;;;4.70;98.90;;;;;;4986735;28;20239;-82
2021/03/05 19:27:57;;;;;;;10.57;5.22;;;4.70;98.90;;;;;;4983218;28;20217;-82
2021/03/05 19:30:31;;;;;;;11.75;8.50;;;4.60;98.80;;;;;;4977661;28;20203;-83
2021/03/05 19:32:58;;;;;;;12.02;6.32;;;4.60;99.00;;;;;;4983985;28;20221;-78
2021/03/05 19:35:24;;;;;;;9.35;5.65;;;4.60;99.10;;;;;;4991994;28;20236;-78
2021/03/05 19:37:51;;;;;;;7.88;5.80;;;4.70;99.40;;;;;;4988665;28;20195;-80
2021/03/05 19:40:19;;;;;;;12.93;6.05;;;4.60;99.20;;;;;;4981663;28;20229;-80
2021/03/05 19:42:45;;;;;;;15.23;5.25;;;4.70;99.10;;;;;;4987780;28;20198;-80
2021/03/05 19:45:13;;;;;;;15.05;5.65;;;4.60;99.10;;;;;;4980051;28;20210;-81
2021/03/05 19:47:40;;;;;;;15.27;8.05;;;4.50;99.30;;;;;;4973814;28;20286;-85
2021/03/05 19:50:08;;;;;;;12.13;7.10;;;4.50;99.60;;;;;;4982982;28;20644;-83
2021/03/05 19:52:35;;;;;;;7.68;3.75;;;4.50;99.60;;;;;;4974352;28;20213;-82
2021/03/05 19:55:02;;;;;;;12.90;4.72;;;4.50;99.70;;;;;;4983977;28;20366;-83
2021/03/05 19:57:28;;;;;;;10.45;6.28;;;4.50;99.90;;;;;;4982926;28;20234;-85
2021/03/05 19:59:55;;;;;;;11.15;4.70;;;4.40;99.90;;;;;;4985056;28;20248;-81
2021/03/05 20:02:23;;;;;;;6.28;3.35;;;4.40;99.90;;;;;;4983894;28;20206;-83
2021/03/05 20:04:49;;;;;;;11.25;3.40;;;4.40;99.90;;;;;;4985874;28;20270;-81
2021/03/05 20:07:16;;;;;;;11.65;3.20;;;4.40;99.90;;;;;;4988449;28;20230;-86
2021/03/05 20:09:43;;;;;;;5.70;3.90;;;4.40;99.90;;;;;;4985247;28;20213;-82
2021/03/05 20:12:29;;;;;;;7.20;3.72;;;4.40;99.90;;;;;;4986349;28;20239;-84
2021/03/05 20:15:18;;;;;;;11.85;3.75;;;4.30;99.90;;;;;;4989488;28;20218;-88
2021/03/05 20:17:54;;;;;;;9.57;2.75;;;4.30;99.90;;;;;;4987301;28;20214;-85
2021/03/05 20:20:21;;;;;;;6.93;2.90;;;4.30;99.90;;;;;;4990423;28;20232;-85
2021/03/05 20:22:50;;;;;;;6.10;2.85;;;4.20;99.90;;;;;;4986787;28;20319;-83
2021/03/05 20:25:17;;;;;;;5.82;2.65;;;4.20;99.90;;;;;;4989398;28;20302;-82
2021/03/05 20:27:44;;;;;;;8.75;3.70;;;4.20;99.90;;;;;;4992831;28;20273;-83
2021/03/05 20:30:11;;;;;;;6.65;3.17;;;4.20;99.90;;;;;;4992071;28;20242;-86
2021/03/05 20:32:39;;;;;;;6.50;3.63;;;4.10;99.90;;;;;;4989052;28;20213;-85
2021/03/05 20:35:08;;;;;;;7.40;2.95;;;4.10;99.90;;;;;;4987864;28;20226;-84
2021/03/05 20:37:34;;;;;;;9.77;3.63;;;4.10;99.90;;;;;;4985300;28;20214;-87
2021/03/05 20:40:01;;;;;;;7.15;3.40;;;4.10;99.90;;;;;;4980421;28;20286;-86
2021/03/05 20:42:28;;;;;;;6.57;2.95;;;4.10;99.90;;;;;;4986847;28;20194;-85
2021/03/05 20:44:55;;;;;;;12.15;5.25;;;4.10;99.90;;;;;;4981458;28;20223;-86
2021/03/05 20:47:23;;;;;;;16.70;4.28;;;4.00;99.90;;;;;;4987412;28;20234;-85
2021/03/05 20:49:50;;;;;;;12.20;4.90;;;4.00;99.90;;;;;;4986049;28;20224;-85
2021/03/05 20:52:18;;;;;;;16.25;6.35;;;4.00;99.90;;;;;;4986137;28;20240;-86
2021/03/05 20:54:45;;;;;;;13.80;6.50;;;4.10;99.90;;;;;;4980483;28;20232;-87
2021/03/05 20:57:12;;;;;;;11.27;4.40;;;3.90;99.90;;;;;;4978748;28;20267;-86
2021/03/05 20:59:38;;;;;;;17.95;8.77;;;3.80;99.90;;;;;;4987751;28;20404;-84
2021/03/05 21:02:06;;;;;;;10.68;5.47;;;3.70;99.90;;;;;;4986252;28;20210;-85
2021/03/05 21:04:41;;;;;;;16.63;8.77;;;3.60;99.90;;;;;;4987749;28;20305;-86
2021/03/05 21:10:32;;;;;;;8.45;4.28;;;3.40;99.90;;;;;;4996193;28;20203;-85
2021/03/05 21:13:48;;;;;;;9.55;5.00;;;3.30;99.90;;;;;;4982906;28;20206;-85
2021/03/05 21:16:15;;;;;;;13.93;6.75;;;3.40;99.90;;;;;;4981414;28;20234;-86
2021/03/05 21:18:42;;;;;;;10.55;5.60;;;3.30;99.90;;;;;;4989859;28;20273;-83
2021/03/05 21:21:09;;;;;;;12.40;7.35;;;3.20;99.90;;;;;;4987909;28;20229;-83
2021/03/05 21:23:35;;;;;;;14.60;6.00;;;3.20;99.90;;;;;;4980850;28;20286;-85
2021/03/05 21:26:03;;;;;;;13.77;5.40;;;3.20;99.90;;;;;;4985674;28;20256;-84
2021/03/05 21:28:30;;;;;;;17.13;8.10;;;3.20;99.90;;;;;;4979246;28;20293;-84
2021/03/05 21:30:57;;;;;;;12.10;5.93;;;3.20;99.90;;;;;;4978176;28;20678;-83
2021/03/05 21:33:24;;;;;;;11.57;7.97;;;3.40;99.90;;;;;;4984776;28;20277;-85
2021/03/05 21:36:09;;;;;;;7.30;4.10;;;3.30;99.90;;;;;;4985505;28;20310;-86
2021/03/05 21:38:35;;;;;;;14.18;3.88;;;3.40;99.90;;;;;;4983771;28;20242;-85
2021/03/05 21:41:27;;;;;;;18.92;4.63;;;3.40;99.90;;;;;;4985647;28;20232;-86
2021/03/05 21:43:54;;;;;;;14.07;3.72;;;3.40;99.90;;;;;;4984328;28;20210;-86
2021/03/05 21:46:21;;;;;;;9.13;3.13;;;3.40;99.90;;;;;;4985864;28;20285;-86
2021/03/05 21:48:48;;;;;;;9.02;3.95;;;3.40;99.90;;;;;;4988924;28;20257;-85
2021/03/05 21:51:14;;;;;;;10.75;4.15;;;3.40;99.90;;;;;;4983159;28;20210;-87
2021/03/05 21:53:41;;;;;;;11.07;5.47;;;3.40;99.90;;;;;;4987226;28;20210;-86
2021/03/05 21:56:09;;;;;;;11.20;5.18;;;3.40;99.90;;;;;;4986642;28;20282;-86
2021/03/05 21:58:36;;;;;;;12.27;5.07;;;3.40;99.90;;;;;;4984889;28;20234;-88
2021/03/05 22:01:27;;;;;;;11.98;4.95;;;3.30;99.90;;;;;;4980477;28;20259;-87
2021/03/05 22:03:59;;;;;;;16.73;6.85;;;3.10;99.90;;;;;;4978641;28;20211;-88
2021/03/05 22:06:27;;;;;;;19.50;6.45;;;3.30;99.90;;;;;;4985038;28;20230;-87
2021/03/05 22:08:54;;;;;;;18.27;8.02;;;3.30;99.90;;;;;;4987709;28;20216;-85
2021/03/05 22:11:21;;;;;;;11.95;6.68;;;3.20;99.90;;;;;;4984730;28;20196;-86
2021/03/05 22:13:49;;;;;;;16.02;7.60;;;3.20;99.90;;;;;;4992452;28;20289;-84
2021/03/05 22:16:15;;;;;;;15.45;5.43;;;3.20;99.90;;;;;;4990155;28;20216;-84
2021/03/05 22:18:42;;;;;;;13.25;4.65;;;3.10;99.90;;;;;;4994057;28;20297;-86
2021/03/05 22:21:09;;;;;;;9.38;4.75;;;3.00;99.90;;;;;;4989576;28;20233;-87
2021/03/05 22:23:36;;;;;;;6.10;4.13;;;3.00;99.90;;;;;;4980849;28;20240;-88
2021/03/05 22:26:03;;;;;;;10.75;3.60;;;3.00;99.90;;;;;;4984390;28;20219;-88
2021/03/05 22:28:30;;;;;;;8.73;5.20;;;2.90;99.90;;;;;;4986070;28;20645;-87
2021/03/05 22:31:01;;;;;;;8.73;5.25;;;3.00;99.90;;;;;;4987967;28;20206;-87
2021/03/05 22:33:28;;;;;;;7.97;3.90;;;2.90;99.90;;;;;;4990698;28;20650;-86
2021/03/05 22:35:55;;;;;;;8.07;3.30;;;3.00;99.90;;;;;;4983466;28;20290;-86
2021/03/05 22:38:22;;;;;;;7.97;3.60;;;2.90;99.90;;;;;;4985361;28;20241;-87
2021/03/05 22:40:49;;;;;;;7.63;4.28;;;2.90;99.90;;;;;;4987930;28;20214;-87
2021/03/05 22:43:15;;;;;;;15.63;4.80;;;2.80;99.90;;;;;;4986513;28;20198;-86
2021/03/05 22:45:42;;;;;;;10.82;4.70;;;2.80;99.90;;;;;;4979111;28;20222;-87
2021/03/05 22:48:11;;;;;;;8.55;4.65;;;2.70;99.90;;;;;;4994828;28;20190;-86
2021/03/05 22:50:37;;;;;;;9.70;4.50;;;2.70;99.90;;;;;;4993429;28;20187;-87
2021/03/05 22:53:16;;;;;;;11.15;4.60;;;2.70;99.90;;;;;;4997637;28;20216;-87
2021/03/05 22:55:43;;;;;;;12.48;4.13;;;2.70;99.90;;;;;;4998116;28;20240;-88
2021/03/05 22:58:10;;;;;;;6.28;3.70;;;2.70;99.90;;;;;;4992833;28;20186;-87
2021/03/05 23:00:37;;;;;;;7.85;4.60;;;2.70;99.90;;;;;;4997255;28;20233;-87
2021/03/05 23:03:05;;;;;;;13.85;4.55;;;2.80;99.90;;;;;;4991015;28;20262;-89
2021/03/05 23:05:33;;;;;;;13.10;5.18;;;2.70;99.90;;;;;;4989762;28;20230;-88
2021/03/05 23:08:00;;;;;;;15.95;5.25;;;2.60;99.90;;;;;;4988880;28;20206;-87
2021/03/05 23:10:31;;;;;;;13.45;4.53;;;3.00;99.90;;;;;;4987972;28;20235;-89
2021/03/05 23:12:58;;;;;;;7.28;4.75;;;3.00;99.90;;;;;;4979573;28;20213;-87
2021/03/05 23:15:25;;;;;;;9.80;4.32;;;2.90;99.90;;;;;;4989248;28;20254;-88
2021/03/05 23:17:53;;;;;;;9.32;3.88;;;2.80;99.90;;;;;;4990422;28;20290;-85
